Data for 03/10/2014

Time Sea-Level Adjusted Pressure Absolute Pressure Temperature Relative Humidity Dew Point   
(mb) (inHg) (mb) (inHg) (C) (F) (%) (C) (F)
00:05 1015 29.97 844 24.92 7.7 45.8 56 -0.6 30.9
00:10 1014 29.94 844 24.92 7.3 45.2 57 -0.6 30.9
00:15 1014 29.94 844 24.92 7.3 45.2 56 -0.8 30.5
00:20 1014 29.94 843 24.89 7.5 45.6 55 -0.8 30.6
00:25 1014 29.94 843 24.89 7.5 45.5 56 -0.7 30.8
00:30 1014 29.94 843 24.89 7.4 45.3 56 -0.8 30.5
00:35 1014 29.94 843 24.89 7.5 45.4 56 -0.6 30.9
00:40 1014 29.94 843 24.89 7.3 45.1 57 -0.6 31
00:45 1014 29.94 843 24.89 7.2 44.9 57 -0.7 30.8
00:50 1014 29.94 843 24.89 7.2 45 57 -0.7 30.7
00:55 1014 29.94 843 24.89 7.4 45.3 57 -0.7 30.8
01:00 1014 29.94 843 24.89 7.5 45.6 56 -0.6 30.9
01:05 1014 29.94 843 24.89 7.4 45.4 57 -0.5 31.1
01:10 1014 29.94 843 24.89 7.2 45 57 -0.7 30.8
01:15 1014 29.94 843 24.89 7.6 45.7 56 -0.7 30.8
01:20 1014 29.94 843 24.89 7.6 45.6 56 -0.6 30.9
01:25 1014 29.94 843 24.89 7.6 45.6 56 -0.7 30.8
01:30 1014 29.94 843 24.89 7.6 45.8 55 -0.8 30.6
01:35 1014 29.94 843 24.89 7.7 45.9 55 -0.8 30.5
01:40 1013 29.91 843 24.89 7.9 46.1 54 -0.9 30.4
01:45 1013 29.91 843 24.89 8.2 46.8 52 -1 30.2
01:50 1013 29.91 843 24.89 8.5 47.4 52 -0.8 30.6
01:55 1013 29.91 842 24.86 8.6 47.4 52 -0.7 30.7
02:00 1013 29.91 842 24.86 8.3 47 54 -0.5 31.1
02:05 1013 29.91 842 24.86 8 46.4 54 -0.7 30.8
02:10 1013 29.91 842 24.86 8 46.3 55 -0.6 30.9
02:15 1013 29.91 842 24.86 8.1 46.5 55 -0.5 31.1
02:20 1013 29.91 842 24.86 8.5 47.2 56 0.1 32.2
02:25 1013 29.91 842 24.86 8.4 47.1 58 0.5 33
02:30 1013 29.91 842 24.86 8.1 46.5 59 0.5 32.9
02:35 1013 29.91 842 24.86 8 46.3 59 0.4 32.8
02:40 1012 29.88 842 24.86 7.8 46.1 60 0.5 32.9
02:45 1012 29.88 842 24.86 7.8 46 59 0.4 32.7
02:50 1012 29.88 841 24.83 7.8 46.1 60 0.5 32.9
02:55 1012 29.88 841 24.83 7.9 46.1 59 0.5 32.8
03:00 1012 29.88 841 24.83 7.9 46.3 59 0.5 32.9
03:05 1012 29.88 841 24.83 8 46.5 59 0.5 32.9
03:10 1012 29.88 841 24.83 8 46.4 59 0.5 32.9
03:15 1012 29.88 841 24.83 8 46.4 59 0.5 32.9
03:20 1012 29.88 841 24.83 7.9 46.2 60 0.6 33
03:25 1012 29.88 841 24.83 7.7 45.8 60 0.5 32.9
03:30 1012 29.88 841 24.83 7.5 45.5 61 0.5 32.9
03:35 1012 29.88 841 24.83 7.4 45.4 61 0.5 32.8
03:40 1012 29.88 841 24.83 7.4 45.3 61 0.4 32.7
03:45 1012 29.88 841 24.83 7.1 44.8 62 0.4 32.7
03:50 1012 29.88 841 24.83 6.6 43.9 64 0.3 32.6
03:55 1012 29.88 841 24.83 6.4 43.5 64 0.2 32.3
04:00 1011 29.85 841 24.83 6.3 43.4 65 0.2 32.4
04:05 1011 29.85 841 24.83 6.2 43.2 65 0.1 32.2
04:10 1011 29.85 841 24.83 6.6 43.9 63 0 32
04:15 1011 29.85 841 24.83 6.8 44.3 64 0.4 32.7
04:20 1011 29.85 840 24.81 6.5 43.8 65 0.4 32.7
04:25 1011 29.85 840 24.81 6.4 43.6 65 0.3 32.5
04:30 1011 29.85 840 24.81 6.3 43.3 65 0.2 32.4
04:35 1011 29.85 840 24.81 6.4 43.6 65 0.3 32.6
04:40 1011 29.85 840 24.81 6.6 43.9 64 0.2 32.4
04:45 1011 29.85 840 24.81 6.6 43.9 64 0.4 32.7
04:50 1011 29.85 840 24.81 6.5 43.7 65 0.5 32.8
04:55 1011 29.85 840 24.81 6.2 43.2 65 0.2 32.3
05:00 1011 29.85 840 24.81 6.4 43.5 64 0.2 32.3
05:05 1011 29.85 840 24.81 6.4 43.6 64 0.1 32.2
05:10 1011 29.85 840 24.81 6.3 43.3 66 0.4 32.7
05:15 1011 29.85 840 24.81 6 42.7 66 0.1 32.2
05:20 1010 29.83 840 24.81 5.7 42.3 66 -0 31.9
05:25 1010 29.83 840 24.81 5.7 42.3 67 0.2 32.3
05:30 1010 29.83 840 24.81 5.7 42.3 65 -0.3 31.4
05:35 1010 29.83 840 24.81 5.8 42.5 66 0 32.1
05:40 1010 29.83 839 24.78 6 42.7 66 0.1 32.1
05:45 1010 29.83 839 24.78 5.8 42.4 67 0.1 32.2
05:50 1010 29.83 839 24.78 5.9 42.6 66 0 32.1
05:55 1010 29.83 839 24.78 5.9 42.6 67 0.1 32.2
06:00 1010 29.83 839 24.78 5.6 42.1 68 0.2 32.3
06:05 1010 29.83 839 24.78 5.4 41.7 69 0.1 32.2
06:10 1010 29.83 839 24.78 5.4 41.7 68 -0.1 31.8
06:15 1010 29.83 839 24.78 5.4 41.7 68 -0 32
06:20 1010 29.83 839 24.78 5.3 41.5 69 0 32.1
06:25 1010 29.83 839 24.78 5.1 41.2 69 -0.1 31.8
06:30 1010 29.83 839 24.78 5.1 41.2 69 0 32
06:35 1010 29.83 839 24.78 4.9 40.9 70 -0 31.9
06:40 1010 29.83 839 24.78 4.9 40.9 71 0 32
06:45 1010 29.83 839 24.78 5 41 71 0.1 32.2
06:50 1010 29.83 839 24.78 5.1 41.2 73 0.7 33.3
06:55 1010 29.83 839 24.78 5.1 41.2 75 1 33.8
07:00 1010 29.83 839 24.78 5.1 41.1 74 0.8 33.4
07:05 1010 29.83 839 24.78 4.6 40.3 80 1.5 34.7
07:10 1010 29.83 839 24.78 4.8 40.6 79 1.4 34.5
07:15 1010 29.83 839 24.78 4.7 40.5 81 1.7 35
07:20 1010 29.83 839 24.78 4.9 40.8 79 1.5 34.7
07:25 1010 29.83 839 24.78 4.9 40.8 81 1.9 35.4
07:30 1010 29.83 839 24.78 5.1 41.1 82 2.2 35.9
07:35 1010 29.83 839 24.78 5.1 41.2 82 2.2 36
07:40 1010 29.83 839 24.78 5.2 41.3 82 2.3 36.1
07:45 1010 29.83 839 24.78 5.1 41.2 82 2.3 36.1
07:50 1010 29.83 839 24.78 5.1 41.2 82 2.2 36
07:55 1010 29.83 839 24.78 5.2 41.3 83 2.5 36.5
08:00 1010 29.83 839 24.78 5.2 41.4 82 2.4 36.3
08:05 1010 29.83 839 24.78 5.3 41.5 81 2.4 36.3
08:10 1010 29.83 839 24.78 5.3 41.5 82 2.4 36.3
08:15 1010 29.83 839 24.78 5.4 41.7 82 2.5 36.6
08:20 1010 29.83 839 24.78 5.2 41.4 83 2.5 36.5
08:25 1010 29.83 839 24.78 5.3 41.5 82 2.4 36.4
08:30 1010 29.83 839 24.78 5.4 41.7 82 2.6 36.7
08:35 1010 29.83 839 24.78 5.3 41.5 82 2.5 36.6
08:40 1010 29.83 839 24.78 5.4 41.8 82 2.5 36.5
08:45 1010 29.83 839 24.78 5.4 41.7 82 2.5 36.5
08:50 1010 29.83 840 24.81 5.4 41.7 82 2.6 36.6
08:55 1010 29.83 839 24.78 5.3 41.6 84 2.8 37
09:00 1010 29.83 839 24.78 5.2 41.3 84 2.7 36.8
09:05 1010 29.83 839 24.78 5.2 41.3 84 2.8 37
09:10 1010 29.83 839 24.78 5.1 41.3 86 2.9 37.3
09:15 1010 29.83 839 24.78 5 41 88 3.1 37.5
09:20 1010 29.83 839 24.78 4.9 40.8 88 3.1 37.6
09:25 1010 29.83 839 24.78 4.7 40.4 90 3.2 37.7
09:30 1010 29.83 839 24.78 4.7 40.5 90 3.3 37.9
09:35 1010 29.83 839 24.78 4.8 40.6 90 3.3 37.9
09:40 1010 29.83 839 24.78 4.7 40.5 91 3.3 38
09:45 1010 29.83 839 24.78 4.7 40.5 90 3.3 38
09:50 1010 29.83 839 24.78 4.8 40.6 91 3.4 38.1
09:55 1010 29.83 839 24.78 4.9 40.9 90 3.4 38.1
10:00 1010 29.83 839 24.78 5 40.9 91 3.5 38.4
10:05 1010 29.83 839 24.78 5.2 41.4 89 3.6 38.5
10:10 1010 29.83 839 24.78 5.4 41.8 88 3.6 38.5
10:15 1010 29.83 839 24.78 5.6 42 87 3.6 38.6
10:20 1010 29.83 839 24.78 5.6 42 87 3.6 38.5
10:25 1010 29.83 839 24.78 5.5 41.9 88 3.6 38.5
10:30 1010 29.83 839 24.78 5.5 42 88 3.6 38.6
10:35 1010 29.83 839 24.78 5.7 42.2 87 3.7 38.7
10:40 1010 29.83 839 24.78 5.7 42.2 87 3.7 38.6
10:45 1010 29.83 839 24.78 5.7 42.2 87 3.7 38.7
10:50 1010 29.83 839 24.78 5.6 42 89 3.9 38.9
10:55 1010 29.83 839 24.78 5.7 42.2 88 3.8 38.9
11:00 1010 29.83 839 24.78 5.7 42.2 87 3.7 38.7
11:05 1010 29.83 839 24.78 5.6 42 87 3.6 38.5
11:10 1010 29.83 839 24.78 5.2 41.3 90 3.6 38.5
11:15 1010 29.83 839 24.78 5 41 91 3.7 38.6
11:20 1010 29.83 839 24.78 5.1 41.2 91 3.7 38.7
11:25 1010 29.83 839 24.78 5.2 41.3 91 3.8 38.8
11:30 1010 29.83 839 24.78 5.3 41.5 90 3.8 38.9
11:35 1010 29.83 839 24.78 5.2 41.4 90 3.7 38.6
11:40 1009 29.8 839 24.78 5.2 41.3 89 3.6 38.4
11:45 1009 29.8 839 24.78 5.2 41.3 89 3.5 38.3
11:50 1009 29.8 839 24.78 5.1 41.1 89 3.4 38.2
11:55 1009 29.8 839 24.78 5 41 89 3.3 37.9
12:00 1009 29.8 839 24.78 4.9 40.8 89 3.3 37.9
12:05 1009 29.8 838 24.75 4.8 40.7 89 3.2 37.7
12:10 1009 29.8 838 24.75 4.8 40.6 90 3.3 37.9
12:15 1009 29.8 838 24.75 4.6 40.4 90 3.1 37.6
12:20 1009 29.8 838 24.75 4.6 40.3 91 3.2 37.8
12:25 1009 29.8 838 24.75 4.6 40.3 91 3.2 37.8
12:30 1009 29.8 838 24.75 4.6 40.2 91 3.2 37.7
12:35 1009 29.8 838 24.75 4.4 40 91 3.1 37.5
12:40 1009 29.8 838 24.75 4.2 39.6 92 3 37.3
12:45 1009 29.8 838 24.75 4.2 39.6 92 3.1 37.5
12:50 1009 29.8 838 24.75 4.1 39.4 92 2.9 37.3
12:55 1009 29.8 838 24.75 4 39.2 93 2.9 37.2
13:00 1009 29.8 838 24.75 4 39.3 92 2.9 37.3
13:05 1009 29.8 838 24.75 4.1 39.4 92 3 37.4
13:10 1009 29.8 838 24.75 4.1 39.5 92 3 37.3
13:15 1009 29.8 838 24.75 4 39.2 92 2.8 37
13:20 1008 29.77 838 24.75 3.9 39.1 92 2.8 37
13:25 1008 29.77 838 24.75 3.9 39.1 92 2.8 37
13:30 1008 29.77 838 24.75 3.9 39 92 2.7 36.9
13:35 1008 29.77 837 24.72 3.8 38.8 92 2.6 36.6
13:40 1008 29.77 837 24.72 3.6 38.4 92 2.4 36.3
13:45 1008 29.77 837 24.72 3.4 38.2 92 2.3 36.2
13:50 1008 29.77 837 24.72 3.3 38 92 2.1 35.9
13:55 1008 29.77 837 24.72 3.1 37.6 92 1.9 35.4
14:00 1008 29.77 837 24.72 2.9 37.2 92 1.7 35
14:05 1008 29.77 837 24.72 2.7 36.8 92 1.6 34.8
14:10 1008 29.77 837 24.72 2.6 36.6 92 1.4 34.6
14:15 1008 29.77 837 24.72 2.4 36.3 93 1.3 34.4
14:20 1008 29.77 837 24.72 2.3 36.1 92 1.1 34.1
14:25 1008 29.77 837 24.72 2 35.6 93 1 33.7
14:30 1008 29.77 837 24.72 1.8 35.3 93 0.8 33.5
14:35 1008 29.77 837 24.72 1.6 35 94 0.7 33.3
14:40 1008 29.77 838 24.75 1.6 34.8 93 0.6 33
14:45 1008 29.77 838 24.75 1.3 34.3 93 0.2 32.4
14:50 1008 29.77 838 24.75 0.9 33.6 93 -0.1 31.9
14:55 1008 29.77 838 24.75 0.7 33.2 94 -0.2 31.7
15:00 1008 29.77 838 24.75 0.6 33.1 94 -0.2 31.6
15:05 1009 29.8 838 24.75 0.5 32.9 94 -0.3 31.5
15:10 1009 29.8 838 24.75 0.4 32.7 95 -0.4 31.3
15:15 1009 29.8 838 24.75 0.4 32.8 95 -0.3 31.4
15:20 1009 29.8 838 24.75 0.4 32.7 95 -0.3 31.4
15:25 1009 29.8 838 24.75 0.4 32.6 95 -0.4 31.4
15:30 1009 29.8 838 24.75 0.3 32.6 95 -0.4 31.3
15:35 1009 29.8 838 24.75 0.4 32.6 95 -0.3 31.4
15:40 1009 29.8 838 24.75 0.4 32.8 95 -0.3 31.5
15:45 1009 29.8 838 24.75 0.4 32.8 95 -0.3 31.5
15:50 1009 29.8 838 24.75 0.4 32.7 95 -0.3 31.4
15:55 1009 29.8 838 24.75 0.4 32.6 95 -0.3 31.4
16:00 1009 29.8 838 24.75 0.4 32.6 95 -0.3 31.4
16:05 1009 29.8 838 24.75 0.4 32.7 95 -0.3 31.5
16:10 1009 29.8 839 24.78 0.4 32.6 95 -0.3 31.5
16:15 1009 29.8 839 24.78 0.4 32.6 95 -0.3 31.5
16:20 1010 29.83 839 24.78 0.3 32.6 95 -0.3 31.5
16:25 1010 29.83 839 24.78 0.3 32.6 96 -0.3 31.4
16:30 1010 29.83 839 24.78 0.3 32.5 96 -0.4 31.3
16:35 1010 29.83 839 24.78 0.3 32.5 96 -0.3 31.4
16:40 1010 29.83 839 24.78 0.3 32.5 96 -0.3 31.4
16:45 1010 29.83 839 24.78 0.3 32.5 96 -0.4 31.3
16:50 1010 29.83 839 24.78 0.3 32.5 96 -0.3 31.4
16:55 1010 29.83 839 24.78 0.2 32.4 96 -0.4 31.3
17:00 1010 29.83 839 24.78 0.2 32.3 96 -0.4 31.3
17:05 1010 29.83 839 24.78 0.1 32.3 96 -0.4 31.2
17:10 1010 29.83 839 24.78 0.2 32.3 96 -0.4 31.2
17:15 1010 29.83 840 24.81 0.2 32.3 96 -0.4 31.3
17:20 1010 29.83 840 24.81 0.1 32.2 96 -0.4 31.2
17:25 1011 29.85 840 24.81 0.1 32.2 96 -0.4 31.2
17:30 1011 29.85 840 24.81 0.2 32.3 96 -0.4 31.3
17:35 1011 29.85 840 24.81 0.1 32.2 96 -0.4 31.3
17:40 1011 29.85 840 24.81 0.1 32.2 96 -0.4 31.3
17:45 1011 29.85 840 24.81 0.2 32.3 96 -0.4 31.3
17:50 1011 29.85 840 24.81 0.2 32.4 96 -0.3 31.4
17:55 1011 29.85 840 24.81 0.2 32.3 96 -0.3 31.4
18:00 1011 29.85 841 24.83 0.2 32.3 96 -0.3 31.4
18:05 1012 29.88 841 24.83 0.2 32.3 96 -0.4 31.3
18:10 1012 29.88 841 24.83 0.2 32.3 96 -0.3 31.4
18:15 1012 29.88 841 24.83 0.2 32.3 96 -0.3 31.4
18:20 1012 29.88 841 24.83 0.2 32.3 96 -0.3 31.4
18:25 1012 29.88 841 24.83 0.2 32.3 96 -0.3 31.4
18:30 1012 29.88 841 24.83 0.2 32.3 96 -0.3 31.4
18:35 1012 29.88 841 24.83 0.2 32.3 96 -0.3 31.4
18:40 1012 29.88 841 24.83 0.2 32.3 97 -0.3 31.4
18:45 1012 29.88 841 24.83 0.2 32.3 97 -0.3 31.5
18:50 1012 29.88 842 24.86 0.2 32.4 97 -0.3 31.5
18:55 1012 29.88 842 24.86 0.2 32.3 96 -0.3 31.4
19:00 1013 29.91 842 24.86 0.2 32.3 97 -0.3 31.4
19:05 1013 29.91 842 24.86 0.2 32.4 97 -0.3 31.5
19:10 1013 29.91 842 24.86 0.2 32.4 97 -0.3 31.5
19:15 1013 29.91 842 24.86 0.2 32.4 97 -0.3 31.5
19:20 1013 29.91 842 24.86 0.2 32.4 96 -0.3 31.5
19:25 1013 29.91 842 24.86 0.2 32.4 96 -0.3 31.5
19:30 1013 29.91 842 24.86 0.2 32.4 96 -0.3 31.4
19:35 1013 29.91 842 24.86 0.2 32.4 96 -0.3 31.5
19:40 1013 29.91 842 24.86 0.2 32.4 96 -0.3 31.5
19:45 1013 29.91 842 24.86 0.2 32.3 96 -0.3 31.4
19:50 1013 29.91 842 24.86 0.2 32.4 96 -0.3 31.4
19:55 1013 29.91 842 24.86 0.2 32.3 96 -0.4 31.4
20:00 1013 29.91 842 24.86 0.2 32.4 96 -0.3 31.4
20:05 1013 29.91 842 24.86 0.2 32.4 96 -0.3 31.4
20:10 1013 29.91 842 24.86 0.2 32.4 96 -0.3 31.4
20:15 1013 29.91 843 24.89 0.2 32.4 96 -0.3 31.4
20:20 1013 29.91 843 24.89 0.2 32.4 96 -0.3 31.4
20:25 1013 29.91 843 24.89 0.2 32.4 96 -0.3 31.4
20:30 1013 29.91 843 24.89 0.2 32.4 96 -0.3 31.4
20:35 1014 29.94 843 24.89 0.2 32.4 96 -0.4 31.3
20:40 1014 29.94 843 24.89 0.2 32.4 96 -0.3 31.4
20:45 1014 29.94 843 24.89 0.2 32.4 96 -0.4 31.3
20:50 1014 29.94 843 24.89 0.2 32.3 96 -0.4 31.3
20:55 1014 29.94 843 24.89 0.2 32.3 96 -0.4 31.4
21:00 1014 29.94 843 24.89 0.1 32.3 96 -0.4 31.3
21:05 1014 29.94 843 24.89 0.1 32.2 96 -0.4 31.3
21:10 1014 29.94 843 24.89 0.1 32.3 96 -0.4 31.3
21:15 1014 29.94 843 24.89 0.1 32.3 96 -0.4 31.3
21:20 1014 29.94 843 24.89 0.2 32.3 96 -0.4 31.4
21:25 1014 29.94 843 24.89 0.2 32.4 96 -0.3 31.5
21:30 1014 29.94 843 24.89 0.2 32.3 96 -0.3 31.4
21:35 1014 29.94 843 24.89 0.2 32.3 96 -0.3 31.4
21:40 1014 29.94 843 24.89 0.2 32.3 96 -0.3 31.4
21:45 1014 29.94 843 24.89 0.2 32.4 96 -0.3 31.4
21:50 1014 29.94 843 24.89 0.2 32.4 96 -0.3 31.5
21:55 1014 29.94 843 24.89 0.2 32.4 96 -0.3 31.5
22:00 1014 29.94 843 24.89 0.2 32.4 96 -0.3 31.5
22:05 1014 29.94 843 24.89 0.3 32.5 96 -0.3 31.5
22:10 1014 29.94 843 24.89 0.3 32.6 95 -0.3 31.4
22:15 1014 29.94 843 24.89 0.3 32.6 95 -0.4 31.4
22:20 1014 29.94 843 24.89 0.3 32.5 95 -0.4 31.3
22:25 1014 29.94 843 24.89 0.3 32.5 96 -0.4 31.4
22:30 1014 29.94 843 24.89 0.2 32.4 96 -0.4 31.3
22:35 1014 29.94 844 24.92 0.2 32.3 96 -0.4 31.3
22:40 1014 29.94 844 24.92 0.2 32.3 96 -0.4 31.2
22:45 1014 29.94 844 24.92 0.1 32.3 96 -0.4 31.2
22:50 1014 29.94 844 24.92 0.2 32.3 96 -0.4 31.3
22:55 1014 29.94 844 24.92 0.1 32.2 96 -0.4 31.2
23:00 1014 29.94 844 24.92 0.1 32.2 96 -0.4 31.2
23:05 1014 29.94 844 24.92 0.1 32.3 96 -0.4 31.3
23:10 1015 29.97 844 24.92 0.2 32.3 96 -0.4 31.3
23:15 1015 29.97 844 24.92 0.2 32.3 96 -0.4 31.3
23:20 1015 29.97 844 24.92 0.2 32.4 96 -0.4 31.3
23:25 1015 29.97 844 24.92 0.2 32.4 96 -0.4 31.3
23:30 1015 29.97 844 24.92 0.2 32.4 96 -0.4 31.3
23:35 1015 29.97 844 24.92 0.2 32.4 96 -0.4 31.2
23:40 1015 29.97 844 24.92 0.2 32.3 96 -0.4 31.2
23:45 1015 29.97 844 24.92 0.2 32.3 96 -0.4 31.2
23:50 1015 29.97 844 24.92 0.2 32.4 96 -0.4 31.3
23:55 1015 29.97 844 24.92 0.2 32.3 96 -0.4 31.2
24:00 1015 29.97 844 24.92 0.2 32.3 96 -0.4 31.2